Time;durP1;ratioP1;P1;durP2;ratioP2;P2;SDS_P1;SDS_P2;PMS_P1;PMS_P2;Temp;Humidity;BMP_temperature;BMP_pressure;BME280_temperature;BME280_humidity;BME280_pressure;Samples;Min_cycle;Max_cycle;Signal;HPM_P1;HPM_P2
2022/10/06 00:01:02;;;;;;;9.43;2.63;;;;;;;18.48;63.81;99754.97;5090196;28;20603;-45
2022/10/06 00:03:29;;;;;;;6.30;2.50;;;;;;;18.26;64.36;99753.84;5091831;28;20107;-45
2022/10/06 00:06:00;;;;;;;6.20;2.25;;;;;;;18.10;65.29;99763.22;5091412;28;20028;-45
2022/10/06 00:08:27;;;;;;;10.57;2.60;;;;;;;18.01;65.70;99760.06;5090218;28;20048;-45
2022/10/06 00:10:56;;;;;;;6.70;2.28;;;;;;;17.81;66.40;99759.44;5091445;28;20107;-45
2022/10/06 00:13:23;;;;;;;6.78;2.15;;;;;;;17.73;67.22;99764.03;5093860;28;20025;-45
2022/10/06 00:15:49;;;;;;;9.93;2.65;;;;;;;17.63;67.28;99768.22;5095034;28;20047;-45
2022/10/06 00:18:15;;;;;;;6.40;2.60;;;;;;;17.57;67.42;99764.59;5093873;28;20020;-45
2022/10/06 00:20:42;;;;;;;4.70;2.20;;;;;;;17.43;67.89;99763.09;5095172;28;20034;-45
2022/10/06 00:23:08;;;;;;;6.60;1.80;;;;;;;17.44;68.15;99770.03;5094980;28;20016;-45
2022/10/06 00:25:34;;;;;;;9.52;2.80;;;;;;;17.47;68.56;99769.59;5095064;28;20070;-45
2022/10/06 00:28:00;;;;;;;6.38;2.15;;;;;;;17.51;68.74;99768.13;5094057;28;20028;-45
2022/10/06 00:30:30;;;;;;;9.00;2.25;;;;;;;17.48;68.70;99760.59;5093959;28;20020;-45
2022/10/06 00:33:01;;;;;;;5.45;1.90;;;;;;;17.52;68.99;99761.78;5094980;28;20108;-45
2022/10/06 00:35:33;;;;;;;8.50;2.40;;;;;;;17.52;68.72;99767.91;5094824;28;20028;-45
2022/10/06 00:38:01;;;;;;;7.55;2.78;;;;;;;17.52;68.87;99767.09;5094877;28;20031;-45
2022/10/06 00:40:29;;;;;;;5.57;2.10;;;;;;;17.47;68.82;99775.72;5093441;28;20181;-45
2022/10/06 00:43:05;;;;;;;4.78;2.58;;;;;;;17.44;68.99;99778.00;5094788;28;20035;-47
2022/10/06 00:45:36;;;;;;;6.40;2.20;;;;;;;17.33;69.23;99782.19;5094687;28;20031;-47
2022/10/06 00:48:24;;;;;;;6.88;2.17;;;;;;;17.21;69.63;99792.69;5094586;28;20051;-47
2022/10/06 00:50:53;;;;;;;7.68;2.38;;;;;;;17.15;69.99;99796.19;5093254;28;20460;-47
2022/10/06 00:53:20;;;;;;;6.20;2.15;;;;;;;17.15;70.24;99798.84;5094511;28;20077;-47
2022/10/06 00:55:45;;;;;;;6.05;2.72;;;;;;;17.13;70.63;99796.41;5094446;28;20065;-47
2022/10/06 00:58:12;;;;;;;6.53;2.22;;;;;;;17.12;70.68;99793.97;5094431;28;20106;-47
2022/10/06 01:00:41;;;;;;;7.35;2.60;;;;;;;17.13;71.10;99788.44;5094382;28;20024;-47
2022/10/06 01:03:14;;;;;;;7.03;2.42;;;;;;;17.19;71.02;99792.09;5094221;28;20016;-47
2022/10/06 01:05:45;;;;;;;6.78;2.78;;;;;;;17.26;70.88;99784.06;5094319;28;20168;-47
2022/10/06 01:08:12;;;;;;;6.45;2.47;;;;;;;17.29;70.58;99788.94;5093149;28;20043;-47
2022/10/06 01:10:38;;;;;;;9.82;2.35;;;;;;;17.32;69.94;99786.66;5092909;28;20393;-46
2022/10/06 01:13:05;;;;;;;7.05;2.40;;;;;;;17.30;69.70;99787.91;5092827;28;20032;-47
2022/10/06 01:15:32;;;;;;;6.28;2.38;;;;;;;17.17;69.83;99780.88;5092546;28;20050;-48
2022/10/06 01:18:12;;;;;;;9.18;3.22;;;;;;;17.11;70.65;99777.25;5093369;28;20476;-47
2022/10/06 01:20:46;;;;;;;6.80;2.90;;;;;;;17.13;70.79;99777.84;5092755;28;20051;-47
2022/10/06 01:23:12;;;;;;;7.13;2.97;;;;;;;17.13;70.73;99787.63;5093364;28;20028;-47
2022/10/06 01:25:38;;;;;;;6.15;2.70;;;;;;;17.16;71.11;99787.19;5092634;28;20053;-47
2022/10/06 01:28:07;;;;;;;7.43;2.90;;;;;;;17.36;71.11;99792.34;5093931;28;20366;-47
2022/10/06 01:30:42;;;;;;;8.27;2.78;;;;;;;17.35;70.75;99790.72;5093834;28;20039;-47
2022/10/06 01:33:07;;;;;;;;;;;;;;;17.38;70.29;99795.59;5094298;28;20028;-47
2022/10/06 01:35:33;;;;;;;9.90;2.60;;;;;;;17.32;70.28;99794.59;5094037;28;19931;-47
2022/10/06 01:37:59;;;;;;;8.38;3.03;;;;;;;17.27;69.83;99793.66;5093742;28;20486;-47
2022/10/06 01:40:27;;;;;;;7.18;2.10;;;;;;;17.33;70.63;99800.75;5093619;28;20020;-47
2022/10/06 01:42:54;;;;;;;6.78;1.92;;;;;;;17.51;69.64;99795.47;5093504;28;20024;-47
2022/10/06 01:45:20;;;;;;;8.82;3.00;;;;;;;17.55;69.07;99785.25;5092329;28;20074;-47
2022/10/06 01:47:46;;;;;;;7.55;3.00;;;;;;;17.50;68.86;99780.56;5093500;28;20032;-47
2022/10/06 01:50:12;;;;;;;7.65;2.72;;;;;;;17.24;69.00;99780.81;5093337;28;20016;-47
2022/10/06 01:52:38;;;;;;;10.57;3.75;;;;;;;16.97;69.69;99775.72;5093442;28;20081;-47
2022/10/06 01:55:04;;;;;;;7.22;2.55;;;;;;;16.82;70.50;99776.03;5092050;28;20024;-47
2022/10/06 01:57:29;;;;;;;5.80;2.90;;;;;;;16.64;71.13;99779.38;5091946;28;20032;-47
2022/10/06 01:59:55;;;;;;;5.65;2.28;;;;;;;16.69;72.13;99781.38;5093295;28;20016;-47
2022/10/06 02:02:20;;;;;;;7.53;2.13;;;;;;;16.81;71.53;99776.22;5091805;28;20023;-47
2022/10/06 02:04:46;;;;;;;6.93;2.70;;;;;;;16.68;71.61;99780.56;5091829;28;20023;-47
2022/10/06 02:07:12;;;;;;;7.68;3.08;;;;;;;16.72;71.63;99781.78;5091762;28;20493;-47
2022/10/06 02:09:38;;;;;;;6.15;3.17;;;;;;;16.80;71.40;99778.03;5093100;28;20028;-47
2022/10/06 02:12:03;;;;;;;4.40;2.92;;;;;;;16.77;71.51;99770.53;5093220;28;20059;-47
2022/10/06 02:14:30;;;;;;;7.32;2.25;;;;;;;16.63;71.89;99768.97;5092929;28;20020;-47
2022/10/06 02:16:57;;;;;;;7.50;2.15;;;;;;;16.51;72.80;99768.84;5092483;28;20044;-47
2022/10/06 02:19:22;;;;;;;7.45;3.00;;;;;;;16.31;73.49;99764.44;5092860;28;20051;-47
2022/10/06 02:21:48;;;;;;;8.90;3.25;;;;;;;16.07;74.11;99773.09;5092756;28;20110;-47
2022/10/06 02:24:13;;;;;;;9.60;4.60;;;;;;;15.92;74.79;99776.03;5092802;28;20012;-47
2022/10/06 02:26:39;;;;;;;9.43;3.50;;;;;;;16.05;75.18;99768.00;5091441;28;20418;-47
2022/10/06 02:29:05;;;;;;;16.92;3.58;;;;;;;16.41;75.33;99771.13;5091540;28;20545;-47
2022/10/06 02:31:30;;;;;;;6.70;2.50;;;;;;;16.93;74.07;99769.22;5091337;28;20116;-47
2022/10/06 02:33:57;;;;;;;13.18;3.13;;;;;;;17.33;72.88;99777.69;5092646;28;20020;-47
2022/10/06 02:36:23;;;;;;;10.32;3.05;;;;;;;17.77;71.52;99772.38;5090806;28;20506;-47
2022/10/06 02:38:49;;;;;;;5.28;2.80;;;;;;;17.85;69.70;99776.56;5092600;28;20020;-47
2022/10/06 02:41:14;;;;;;;8.30;2.45;;;;;;;17.87;69.78;99779.84;5091060;28;20035;-47
2022/10/06 02:43:40;;;;;;;13.20;3.97;;;;;;;18.01;68.66;99781.31;5091142;28;20092;-47
2022/10/06 02:46:10;;;;;;;15.23;3.05;;;;;;;17.79;68.44;99778.28;5091027;28;20024;-47
2022/10/06 02:48:37;;;;;;;12.07;3.08;;;;;;;17.98;68.75;99783.59;5092418;28;20161;-47
2022/10/06 02:51:10;;;;;;;8.68;2.83;;;;;;;18.03;67.91;99786.41;5091279;28;20462;-47
2022/10/06 02:53:36;;;;;;;8.38;3.10;;;;;;;17.93;67.91;99790.41;5092357;28;20077;-47
2022/10/06 02:56:06;;;;;;;12.95;3.08;;;;;;;17.99;68.05;99774.59;5091050;28;20023;-47
2022/10/06 02:58:32;;;;;;;12.63;3.25;;;;;;;18.10;67.14;99779.97;5092213;28;20077;-47
2022/10/06 03:01:07;;;;;;;14.15;3.58;;;;;;;17.88;66.61;99781.47;5091001;28;20493;-47
2022/10/06 03:03:36;;;;;;;12.00;3.08;;;;;;;17.72;67.20;99782.81;5092238;28;20077;-47
2022/10/06 03:06:20;;;;;;;6.80;3.03;;;;;;;17.68;66.94;99786.94;5092081;28;20036;-47
2022/10/06 03:09:07;;;;;;;16.52;3.88;;;;;;;17.45;68.28;99788.38;5092121;28;20024;-47
2022/10/06 03:11:38;;;;;;;10.80;3.08;;;;;;;17.56;68.03;99785.00;5091890;28;20032;-47
2022/10/06 03:14:05;;;;;;;10.45;3.53;;;;;;;17.52;67.61;99788.31;5092019;28;20020;-47
2022/10/06 03:16:53;;;;;;;16.27;4.53;;;;;;;17.50;67.77;99798.34;5090456;28;20131;-47
2022/10/06 03:19:19;;;;;;;13.98;5.07;;;;;;;17.28;67.33;99809.34;5090849;28;20043;-47
2022/10/06 03:21:45;;;;;;;10.10;3.65;;;;;;;17.03;67.82;99805.88;5090540;28;20020;-47
2022/10/06 03:24:10;;;;;;;9.40;3.78;;;;;;;16.84;68.65;99819.06;5091872;28;20370;-47
2022/10/06 03:26:42;;;;;;;9.07;3.63;;;;;;;16.71;69.97;99825.19;5091892;28;20020;-47
2022/10/06 03:29:09;;;;;;;13.45;3.17;;;;;;;16.80;70.42;99833.72;5090627;28;20031;-47
2022/10/06 03:31:35;;;;;;;9.88;3.03;;;;;;;17.01;70.57;99824.66;5090831;28;20032;-47
2022/10/06 03:34:01;;;;;;;13.70;3.42;;;;;;;17.32;70.15;99836.25;5091986;28;20081;-47
2022/10/06 03:36:31;;;;;;;8.40;3.47;;;;;;;17.51;68.51;99826.53;5090588;28;20078;-47
2022/10/06 03:38:57;;;;;;;16.50;3.20;;;;;;;17.48;68.31;99829.59;5091726;28;20062;-47
2022/10/06 03:41:26;;;;;;;17.98;3.50;;;;;;;17.65;68.44;99838.66;5090295;28;20056;-47
2022/10/06 03:43:54;;;;;;;7.82;2.85;;;;;;;17.76;67.74;99851.19;5090406;28;20119;-47
2022/10/06 03:46:22;;;;;;;11.40;3.30;;;;;;;17.93;67.42;99856.78;5091199;28;20284;-47
2022/10/06 03:48:50;;;;;;;12.38;2.97;;;;;;;18.22;66.68;99854.44;5095757;28;20077;-47
2022/10/06 03:51:30;;;;;;;9.48;2.95;;;;;;;18.51;65.84;99855.56;5095767;28;20023;-47
2022/10/06 03:53:58;;;;;;;11.63;2.75;;;;;;;18.70;64.90;99863.50;5095686;28;20032;-47
2022/10/06 03:56:32;;;;;;;12.95;3.25;;;;;;;18.77;64.22;99848.25;5094318;28;20048;-47
2022/10/06 03:59:00;;;;;;;9.68;2.80;;;;;;;18.90;64.16;99850.75;5094335;28;20513;-47
2022/10/06 04:01:46;;;;;;;8.27;3.72;;;;;;;19.13;63.38;99850.00;5094142;28;20107;-47
2022/10/06 04:04:12;;;;;;;12.07;2.78;;;;;;;19.16;63.10;99856.75;5094245;28;20111;-47
2022/10/06 04:06:41;;;;;;;8.02;3.15;;;;;;;19.05;62.94;99850.34;5094179;28;20024;-47
2022/10/06 04:09:09;;;;;;;8.82;2.95;;;;;;;18.78;63.26;99849.88;5094093;28;20020;-47
2022/10/06 04:11:37;;;;;;;7.35;2.60;;;;;;;18.60;63.77;99849.94;5095431;28;20048;-47
2022/10/06 04:14:05;;;;;;;14.80;3.05;;;;;;;18.34;63.93;99851.88;5095358;28;20024;-47
2022/10/06 04:16:35;;;;;;;13.88;2.60;;;;;;;18.07;64.73;99854.81;5093723;28;20372;-48
2022/10/06 04:19:03;;;;;;;8.65;2.90;;;;;;;17.88;64.74;99850.50;5095153;28;20036;-47
2022/10/06 04:21:33;;;;;;;9.60;2.80;;;;;;;17.54;64.98;99842.00;5095108;28;20024;-47
2022/10/06 04:23:59;;;;;;;11.55;2.92;;;;;;;17.22;66.05;99855.31;5095722;28;20400;-47
2022/10/06 04:26:29;;;;;;;7.15;2.40;;;;;;;17.17;67.24;99855.16;5095154;28;20581;-47
2022/10/06 04:28:55;;;;;;;8.32;3.03;;;;;;;17.27;67.59;99860.78;5095025;28;20012;-48
2022/10/06 04:31:24;;;;;;;9.38;4.05;;;;;;;17.33;67.42;99851.16;5095022;28;20030;-47
2022/10/06 04:33:52;;;;;;;10.68;2.80;;;;;;;17.19;66.55;99850.44;5094968;28;20103;-47
2022/10/06 04:36:24;;;;;;;6.40;3.17;;;;;;;16.83;67.62;99851.88;5095160;28;20032;-47
2022/10/06 04:38:55;;;;;;;9.95;4.35;;;;;;;16.46;68.92;99850.78;5095163;28;20024;-47
2022/10/06 04:41:23;;;;;;;8.05;3.65;;;;;;;16.07;70.27;99849.91;5094999;28;20168;-47
2022/10/06 04:43:50;;;;;;;13.02;5.13;;;;;;;15.74;71.62;99850.78;5094708;28;20016;-47
2022/10/06 04:46:18;;;;;;;11.15;4.70;;;;;;;15.64;72.42;99856.44;5094729;28;20067;-47
2022/10/06 04:48:44;;;;;;;9.77;4.10;;;;;;;15.48;72.77;99851.56;5094649;28;20024;-47
2022/10/06 04:51:15;;;;;;;9.32;4.05;;;;;;;15.38;73.63;99859.91;5093260;28;20032;-47
2022/10/06 04:53:43;;;;;;;9.40;4.90;;;;;;;15.38;73.77;99860.72;5093253;28;20169;-47
2022/10/06 04:56:22;;;;;;;13.98;4.80;;;;;;;15.36;74.01;99849.53;5094499;28;20103;-47
2022/10/06 04:58:50;;;;;;;9.63;4.43;;;;;;;15.32;74.00;99848.31;5093870;28;20028;-47
2022/10/06 05:01:20;;;;;;;16.85;4.50;;;;;;;15.16;74.33;99849.50;5094349;28;20028;-47
2022/10/06 05:03:48;;;;;;;22.05;5.28;;;;;;;15.06;74.74;99851.72;5093293;28;20024;-47
2022/10/06 05:06:17;;;;;;;10.00;4.28;;;;;;;14.86;74.98;99854.31;5092946;28;20024;-47
2022/10/06 05:08:47;;;;;;;11.73;4.57;;;;;;;14.58;76.04;99854.44;5094285;28;20016;-47
2022/10/06 05:11:13;;;;;;;8.90;4.57;;;;;;;14.42;77.36;99852.91;5094317;28;20024;-47
2022/10/06 05:13:39;;;;;;;9.13;4.22;;;;;;;14.34;77.63;99858.38;5094218;28;20082;-47
2022/10/06 05:16:07;;;;;;;13.13;4.97;;;;;;;14.31;78.20;99856.94;5094399;28;20095;-48
2022/10/06 05:18:34;;;;;;;9.35;4.72;;;;;;;14.42;77.64;99852.91;5094085;28;20024;-47
2022/10/06 05:21:06;;;;;;;10.25;5.00;;;;;;;14.58;77.37;99844.69;5093983;28;20027;-47
2022/10/06 05:23:35;;;;;;;9.95;4.25;;;;;;;14.73;76.91;99847.19;5093964;28;20028;-47
2022/10/06 05:26:02;;;;;;;6.93;4.25;;;;;;;14.76;76.25;99848.59;5093884;28;20016;-47
2022/10/06 05:28:29;;;;;;;13.52;7.90;;;;;;;14.66;76.38;99846.34;5092591;28;20028;-46
2022/10/06 05:30:59;;;;;;;9.57;6.38;;;;;;;14.58;77.11;99849.97;5093836;28;20012;-47
2022/10/06 05:33:28;;;;;;;10.68;4.72;;;;;;;14.53;77.52;99852.38;5093818;28;20032;-47
2022/10/06 05:36:05;;;;;;;17.67;5.43;;;;;;;14.56;77.79;99851.97;5093745;28;20016;-47
2022/10/06 05:38:32;;;;;;;19.52;4.60;;;;;;;14.55;77.88;99858.25;5092478;28;20032;-47
2022/10/06 05:41:05;;;;;;;10.27;4.22;;;;;;;14.59;77.92;99864.00;5093861;28;20035;-47
2022/10/06 05:43:31;;;;;;;19.23;4.93;;;;;;;14.84;78.29;99869.56;5092533;28;20032;-47
2022/10/06 05:45:59;;;;;;;10.52;4.72;;;;;;;15.06;77.54;99864.94;5092187;28;20120;-47
2022/10/06 05:48:26;;;;;;;10.88;5.05;;;;;;;14.88;76.25;99856.78;5092295;28;20027;-47
2022/10/06 05:51:08;;;;;;;14.43;5.18;;;;;;;14.61;77.13;99858.50;5093444;28;20027;-47
2022/10/06 05:53:35;;;;;;;7.75;4.88;;;;;;;14.53;77.69;99865.56;5093414;28;20604;-47
2022/10/06 05:56:10;;;;;;;12.30;5.07;;;;;;;14.82;77.89;99871.59;5093303;28;20021;-47
2022/10/06 05:58:38;;;;;;;7.65;4.38;;;;;;;15.30;77.17;99868.03;5093366;28;20028;-47
2022/10/06 06:01:15;;;;;;;10.50;4.18;;;;;;;15.55;74.62;99871.72;5093264;28;20022;-47
2022/10/06 06:03:45;;;;;;;19.85;5.82;;;;;;;15.63;74.60;99872.53;5093220;28;20111;-47
2022/10/06 06:06:22;;;;;;;13.55;4.43;;;;;;;16.28;74.61;99877.94;5075715;28;20444;-47
2022/10/06 06:08:52;;;;;;;11.82;5.07;;;;;;;17.31;70.54;99869.94;5074896;28;20016;-47
2022/10/06 06:11:18;;;;;;;13.88;4.63;;;;;;;18.03;68.61;99864.25;5091728;28;20104;-47
2022/10/06 06:13:43;;;;;;;11.18;5.80;;;;;;;18.32;64.87;99861.91;5092985;28;20027;-47
2022/10/06 06:16:14;;;;;;;15.75;8.07;;;;;;;18.24;63.87;99852.38;5092770;28;20044;-48
2022/10/06 06:18:40;;;;;;;9.40;4.95;;;;;;;18.05;63.51;99853.41;5092990;28;20036;-47
2022/10/06 06:21:08;;;;;;;11.23;4.32;;;;;;;17.60;64.70;99858.91;5092920;28;20064;-47
2022/10/06 06:23:37;;;;;;;9.63;4.40;;;;;;;17.36;65.35;99862.16;5091659;28;20485;-47
2022/10/06 06:26:09;;;;;;;11.13;4.85;;;;;;;17.14;66.21;99861.72;5092681;28;20028;-47
2022/10/06 06:28:36;;;;;;;10.10;6.50;;;;;;;17.05;66.52;99862.97;5092694;28;20115;-47
2022/10/06 06:31:10;;;;;;;20.83;7.82;;;;;;;17.06;66.80;99859.28;5092936;28;20070;-47
2022/10/06 06:33:38;;;;;;;20.08;7.93;;;;;;;17.15;66.66;99862.50;5091313;28;20059;-47
2022/10/06 06:36:19;;;;;;;13.80;5.32;;;;;;;17.25;66.53;99867.34;5091442;28;20028;-47
2022/10/06 06:38:53;;;;;;;10.73;4.78;;;;;;;17.44;66.42;99865.56;5091271;28;20035;-47
2022/10/06 06:41:29;;;;;;;15.15;4.07;;;;;;;17.79;66.10;99860.59;5091187;28;20020;-47
2022/10/06 06:43:54;;;;;;;;;;;;;;;18.13;65.61;99874.38;5092917;28;20066;-47
2022/10/06 06:46:23;;;;;;;12.32;4.10;;;;;;;18.51;64.46;99878.63;5092450;28;19916;-47
2022/10/06 06:48:54;;;;;;;11.60;3.88;;;;;;;18.88;63.08;99886.63;5092367;28;20375;-47
2022/10/06 06:51:22;;;;;;;14.98;4.20;;;;;;;19.29;62.08;99879.69;5092390;28;20031;-47
2022/10/06 06:53:49;;;;;;;16.85;3.95;;;;;;;20.13;59.98;99869.69;5092246;28;20024;-47
2022/10/06 06:56:16;;;;;;;12.60;3.50;;;;;;;20.99;57.72;99873.50;5092310;28;20020;-45
2022/10/06 06:58:46;;;;;;;12.75;3.60;;;;;;;21.65;55.85;99879.16;5092227;28;20024;-45
2022/10/06 07:01:18;;;;;;;15.57;3.75;;;;;;;22.28;53.49;99877.16;5090870;28;20024;-45
2022/10/06 07:03:53;;;;;;;12.57;3.78;;;;;;;22.96;52.56;99890.22;5090914;28;20059;-45
2022/10/06 07:06:19;;;;;;;;;;;;;;;23.40;52.99;99895.47;5091286;28;20401;-46
2022/10/06 07:08:46;;;;;;;14.93;3.88;;;;;;;23.66;50.35;99894.63;5090825;28;19919;-46
2022/10/06 07:11:35;;;;;;;17.42;4.13;;;;;;;23.75;49.18;99902.19;5092071;28;20024;-46
2022/10/06 07:14:13;;;;;;;11.20;3.80;;;;;;;23.54;48.65;99899.34;5091692;28;20048;-46
2022/10/06 07:25:07;;;;;;;11.25;3.55;;;;;;;23.13;49.49;99907.84;5092190;28;20058;-46
2022/10/06 07:27:36;;;;;;;8.23;3.92;;;;;;;23.24;48.99;99900.72;5091900;28;20024;-45
2022/10/06 07:30:06;;;;;;;14.80;3.83;;;;;;;23.13;49.24;99905.16;5090600;28;20048;-45
2022/10/06 07:32:32;;;;;;;8.93;4.07;;;;;;;23.38;48.97;99908.31;5090465;28;20035;-45
2022/10/06 07:34:57;;;;;;;14.60;3.97;;;;;;;23.55;48.70;99913.56;5090595;28;20111;-45
2022/10/06 07:37:24;;;;;;;10.38;3.95;;;;;;;23.73;48.23;99907.81;5091785;28;20108;-45
2022/10/06 07:39:50;;;;;;;13.27;4.55;;;;;;;24.09;47.94;99918.81;5091732;28;20054;-45
2022/10/06 07:42:17;;;;;;;21.08;5.00;;;;;;;24.40;47.47;99914.38;5091688;28;20076;-46
2022/10/06 07:45:36;;;;;;;11.93;5.28;;;;;;;24.28;47.96;99908.44;5091726;28;20043;-46
2022/10/06 07:47:32;;;;;;;13.32;7.13;;;;;;;24.35;47.36;99914.38;5091539;28;20067;-45
2022/10/06 07:49:58;;;;;;;25.35;5.28;;;;;;;24.57;47.70;99916.09;5091737;28;20065;-46
2022/10/06 07:52:27;;;;;;;16.40;4.55;;;;;;;25.22;46.89;99909.31;5091624;28;20033;-46
2022/10/06 07:54:54;;;;;;;11.93;4.25;;;;;;;25.94;44.73;99919.25;5090292;28;20056;-46
2022/10/06 07:57:20;;;;;;;74.45;25.38;;;;;;;25.33;45.23;99928.94;5091558;28;20453;-46
2022/10/06 07:59:46;;;;;;;40.13;10.05;;;;;;;24.73;46.71;99928.53;5091593;28;20020;-46
2022/10/06 08:02:12;;;;;;;34.15;12.00;;;;;;;24.15;47.49;99924.97;5091420;28;20378;-46
2022/10/06 08:04:37;;;;;;;13.25;4.97;;;;;;;23.41;48.61;99935.41;5090175;28;20035;-46
2022/10/06 08:07:05;;;;;;;16.45;5.35;;;;;;;22.91;50.10;99934.63;5091533;28;20461;-45
2022/10/06 08:09:31;;;;;;;16.77;4.93;;;;;;;22.70;51.01;99936.28;5091482;28;20028;-46
2022/10/06 08:11:56;;;;;;;13.05;4.53;;;;;;;22.33;51.82;99949.41;5091524;28;20375;-46
2022/10/06 08:14:22;;;;;;;19.55;8.05;;;;;;;22.14;53.12;99938.19;5091524;28;20463;-46
2022/10/06 08:16:48;;;;;;;15.80;9.68;;;;;;;22.19;53.34;99934.75;5089840;28;20067;-45
2022/10/06 08:19:16;;;;;;;11.20;4.38;;;;;;;22.32;52.96;99935.25;5091420;28;20016;-45
2022/10/06 08:21:42;;;;;;;12.07;4.95;;;;;;;22.41;53.00;99942.84;5091534;28;20390;-45
2022/10/06 08:24:09;;;;;;;21.42;4.68;;;;;;;22.58;52.70;99942.78;5091305;28;20017;-45
2022/10/06 08:26:35;;;;;;;18.50;5.35;;;;;;;22.65;52.62;99944.22;5091238;28;20016;-45
2022/10/06 08:29:03;;;;;;;15.93;4.18;;;;;;;22.65;52.32;99941.53;5089986;28;20451;-46
2022/10/06 08:31:30;;;;;;;16.55;4.90;;;;;;;22.54;53.02;99940.63;5091271;28;20056;-45
2022/10/06 08:33:56;;;;;;;11.52;5.00;;;;;;;22.54;52.98;99932.59;5093018;28;20032;-45
2022/10/06 08:36:28;;;;;;;12.48;5.63;;;;;;;22.62;52.88;99944.72;5094867;28;20073;-45
2022/10/06 08:38:54;;;;;;;9.23;4.70;;;;;;;22.65;52.71;99938.88;5094944;28;20089;-45
2022/10/06 08:41:27;;;;;;;10.43;4.47;;;;;;;22.67;52.46;99939.44;5094787;28;20013;-45
2022/10/06 08:43:56;;;;;;;12.00;4.90;;;;;;;23.11;52.17;99941.28;5094869;28;20028;-45
2022/10/06 08:46:27;;;;;;;14.00;5.57;;;;;;;23.96;50.27;99941.50;5093380;28;20589;-45
2022/10/06 08:48:53;;;;;;;14.82;4.63;;;;;;;24.50;48.93;99938.63;5077117;28;20038;-45
2022/10/06 08:51:27;;;;;;;10.30;4.40;;;;;;;24.80;48.13;99937.13;5094634;28;20103;-46
2022/10/06 08:54:13;;;;;;;22.52;5.72;;;;;;;25.53;47.35;99941.56;5094693;28;20098;-46
2022/10/06 08:56:57;;;;;;;16.27;4.20;;;;;;;26.24;45.72;99932.66;5094576;28;20081;-46
2022/10/06 08:59:24;;;;;;;15.20;4.32;;;;;;;26.90;44.25;99937.00;5094569;28;20578;-46
2022/10/06 09:01:53;;;;;;;14.20;5.45;;;;;;;27.04;42.96;99931.78;5094389;28;20036;-46
2022/10/06 09:04:27;;;;;;;13.13;4.10;;;;;;;27.53;43.02;99938.22;5094435;28;20047;-46
2022/10/06 09:07:05;;;;;;;8.52;4.15;;;;;;;29.09;40.41;99928.91;5094346;28;20031;-46
2022/10/06 09:09:45;;;;;;;11.45;3.53;;;;;;;30.85;37.08;99922.81;5094443;28;20128;-46
2022/10/06 09:12:17;;;;;;;15.32;3.85;;;;;;;31.57;34.43;99926.56;5092956;28;20032;-46
2022/10/06 09:14:54;;;;;;;11.45;3.95;;;;;;;31.66;34.28;99935.56;5094537;28;20394;-47
2022/10/06 09:17:45;;;;;;;17.83;4.63;;;;;;;32.30;33.23;99932.53;5094025;28;20525;-46
2022/10/06 09:20:41;;;;;;;13.77;3.45;;;;;;;32.38;32.70;99917.38;5094136;28;20080;-46
2022/10/06 09:23:15;;;;;;;12.70;3.63;;;;;;;32.66;32.11;99915.22;5093945;28;20478;-46
2022/10/06 09:25:41;;;;;;;22.42;4.38;;;;;;;32.68;31.66;99914.88;5092755;28;20035;-46
2022/10/06 09:28:14;;;;;;;18.33;3.63;;;;;;;33.14;30.80;99917.00;5093988;28;20028;-46
2022/10/06 09:30:42;;;;;;;12.02;3.22;;;;;;;33.54;30.39;99914.03;5093928;28;20031;-46
2022/10/06 09:33:19;;;;;;;16.58;3.38;;;;;;;33.81;29.89;99909.38;5093781;28;20032;-46
2022/10/06 09:36:09;;;;;;;5.63;2.22;;;;;;;34.20;29.21;99913.69;5093879;28;20405;-46
2022/10/06 09:38:52;;;;;;;11.20;3.55;;;;;;;34.57;28.50;99904.97;5092469;28;20027;-47
2022/10/06 09:41:45;;;;;;;12.27;3.22;;;;;;;34.21;28.18;99914.50;5076825;28;20031;-46
2022/10/06 09:44:29;;;;;;;10.65;3.42;;;;;;;33.90;28.68;99921.00;5090090;28;20047;-46
2022/10/06 09:46:55;;;;;;;14.32;3.20;;;;;;;33.74;29.08;99914.50;5093829;28;20024;-46
2022/10/06 09:49:30;;;;;;;16.63;3.88;;;;;;;33.53;29.45;99920.63;5093511;28;20509;-46
2022/10/06 09:51:59;;;;;;;11.57;2.78;;;;;;;33.33;29.45;99919.38;5092332;28;20076;-46
2022/10/06 09:54:24;;;;;;;13.27;3.70;;;;;;;33.50;29.29;99926.69;5093415;28;20094;-47
2022/10/06 09:56:54;;;;;;;15.27;2.92;;;;;;;33.38;29.61;99926.56;5093356;28;20024;-46
2022/10/06 09:59:28;;;;;;;14.68;2.80;;;;;;;33.45;29.75;99918.72;5093597;28;20028;-47
2022/10/06 10:01:54;;;;;;;;;;;;;;;33.64;29.54;99915.66;5093661;28;20024;-47
2022/10/06 10:04:29;;;;;;;13.77;2.72;;;;;;;33.66;28.73;99916.13;5091885;28;20309;-46
2022/10/06 10:07:23;;;;;;;9.93;2.60;;;;;;;33.82;28.89;99919.13;5093414;28;20459;-46
2022/10/06 10:09:49;;;;;;;14.68;2.83;;;;;;;33.58;29.33;99909.53;5093230;28;20047;-46
2022/10/06 10:12:28;;;;;;;9.25;2.85;;;;;;;33.82;29.03;99916.41;5093051;28;20054;-46
2022/10/06 10:14:58;;;;;;;8.63;2.40;;;;;;;34.10;28.21;99907.78;5093315;28;20024;-46
2022/10/06 10:17:38;;;;;;;10.50;2.28;;;;;;;34.31;27.58;99908.66;5092601;28;20040;-46
2022/10/06 10:20:24;;;;;;;8.43;2.30;;;;;;;34.33;28.07;99908.31;5092934;28;20507;-47
2022/10/06 10:22:52;;;;;;;8.38;2.25;;;;;;;35.06;27.01;99902.53;5091518;28;20055;-47
2022/10/06 10:26:03;;;;;;;7.47;2.70;;;;;;;35.79;25.95;99896.47;5092747;28;20031;-47
2022/10/06 10:28:34;;;;;;;6.85;2.25;;;;;;;35.63;25.62;99890.06;5013812;28;20025;-47
2022/10/06 10:31:06;;;;;;;7.13;2.08;;;;;;;35.85;25.32;99896.28;5030399;28;20587;-47
2022/10/06 10:33:44;;;;;;;5.30;2.50;;;;;;;36.19;24.68;99889.56;5013763;28;20033;-46
2022/10/06 10:36:13;;;;;;;7.53;2.20;;;;;;;36.20;24.58;99885.69;5030391;28;20512;-47
2022/10/06 10:38:41;;;;;;;5.82;2.25;;;;;;;36.19;24.85;99890.38;5013616;28;20043;-47
2022/10/06 10:41:26;;;;;;;5.30;2.35;;;;;;;36.31;24.96;99886.81;5013581;28;20025;-46
2022/10/06 10:43:55;;;;;;;7.32;2.25;;;;;;;36.57;24.31;99880.16;5013626;28;20029;-47
2022/10/06 10:46:35;;;;;;;11.30;2.55;;;;;;;35.91;25.00;99884.78;5030054;28;20088;-47
2022/10/06 10:49:17;;;;;;;9.82;2.58;;;;;;;35.55;25.01;99880.03;5013596;28;20057;-47
2022/10/06 10:51:56;;;;;;;12.85;2.78;;;;;;;35.10;25.78;99889.00;5030063;28;20478;-46
2022/10/06 10:54:39;;;;;;;9.82;2.33;;;;;;;35.40;25.55;99876.84;5030045;28;20037;-46
2022/10/06 10:57:14;;;;;;;7.78;2.40;;;;;;;35.34;25.51;99885.59;5029383;28;20030;-46
2022/10/06 10:59:57;;;;;;;9.38;2.28;;;;;;;35.32;25.76;99869.53;5068939;28;20059;-46
2022/10/06 11:02:24;;;;;;;8.40;2.45;;;;;;;35.63;25.08;99873.69;5092185;28;20023;-46
2022/10/06 11:04:56;;;;;;;12.48;2.47;;;;;;;35.48;25.13;99877.88;5092179;28;20016;-46
2022/10/06 11:07:43;;;;;;;8.70;2.35;;;;;;;35.36;25.69;99880.59;5092135;28;20032;-46
2022/10/06 11:10:16;;;;;;;7.45;2.03;;;;;;;35.17;25.45;99867.44;5090872;28;20051;-46
2022/10/06 11:12:48;;;;;;;9.32;2.67;;;;;;;34.30;26.39;99873.56;5092165;28;20031;-46
2022/10/06 11:15:31;;;;;;;7.38;2.67;;;;;;;33.91;27.44;99876.31;5092001;28;20035;-46
2022/10/06 11:18:27;;;;;;;6.27;2.57;;;;;;;33.58;27.44;99876.88;5073670;28;20083;-46
2022/10/06 11:21:10;;;;;;;10.27;2.42;;;;;;;33.47;28.25;99875.66;5090436;28;20071;-46
2022/10/06 11:23:46;;;;;;;7.63;2.80;;;;;;;33.72;28.23;99865.81;5090670;28;20031;-46
2022/10/06 11:26:42;;;;;;;10.05;2.60;;;;;;;33.78;28.12;99874.59;5091916;28;20040;-46
2022/10/06 11:29:37;;;;;;;7.32;2.30;;;;;;;33.99;27.70;99866.50;5091879;28;20020;-46
2022/10/06 11:32:18;;;;;;;9.90;2.67;;;;;;;33.09;28.05;99879.09;5090590;28;20035;-46
2022/10/06 11:34:48;;;;;;;7.05;2.40;;;;;;;32.29;30.06;99870.34;5091850;28;20118;-46
2022/10/06 11:37:30;;;;;;;9.52;2.92;;;;;;;33.19;29.23;99869.78;5091715;28;20024;-46
2022/10/06 11:40:33;;;;;;;13.30;3.53;;;;;;;34.28;28.49;99857.53;5091838;28;20055;-46
2022/10/06 11:43:05;;;;;;;8.35;2.25;;;;;;;34.80;27.30;99859.09;5090318;28;20036;-46
2022/10/06 11:45:51;;;;;;;15.15;2.80;;;;;;;35.02;26.79;99855.22;5091767;28;20074;-46
2022/10/06 11:48:27;;;;;;;9.20;2.63;;;;;;;35.20;26.31;99855.88;5091755;28;20051;-47
2022/10/06 11:50:56;;;;;;;6.80;2.45;;;;;;;35.53;26.01;99835.91;5091744;28;20489;-46
2022/10/06 11:53:25;;;;;;;7.30;2.33;;;;;;;35.55;25.97;99844.53;5091607;28;20062;-46
2022/10/06 11:56:15;;;;;;;11.18;2.88;;;;;;;35.90;25.22;99836.75;5090302;28;20437;-46